createdAt,value
2018-06-18T17:43:05.082Z,101116.53
2018-06-18T17:45:34.340Z,101117.12
2018-06-18T17:48:03.744Z,101118.50
2018-06-18T17:50:32.950Z,101119.98
2018-06-18T17:53:02.174Z,101124.69
2018-06-18T17:55:31.468Z,101124.60
2018-06-18T17:58:00.681Z,101121.87
2018-06-18T18:00:29.941Z,101118.36
2018-06-18T18:02:59.178Z,101121.92
2018-06-18T18:05:28.400Z,101116.73
2018-06-18T18:07:57.659Z,101120.05
2018-06-18T18:10:26.937Z,101117.58
2018-06-18T18:12:56.215Z,101117.99
2018-06-18T18:15:25.386Z,101117.12
2018-06-18T18:17:54.610Z,101120.69
2018-06-18T18:20:23.922Z,101122.39
2018-06-18T18:22:53.274Z,101126.69
2018-06-18T18:25:22.430Z,101122.69
2018-06-18T18:27:51.624Z,101124.95
2018-06-18T18:30:20.929Z,101121.77
2018-06-18T18:32:50.187Z,101120.38
2018-06-18T18:35:19.436Z,101123.94
2018-06-18T18:37:48.915Z,101129.80
2018-06-18T18:40:18.210Z,101128.16
2018-06-18T18:42:47.769Z,101129.41
2018-06-18T18:45:17.148Z,101121.37
2018-06-18T18:47:46.385Z,101128.67
2018-06-18T18:50:15.536Z,101130.19
2018-06-18T18:52:44.722Z,101131.38
2018-06-18T18:55:43.218Z,101133.75
2018-06-18T18:58:29.685Z,101136.83
2018-06-18T19:00:58.869Z,101135.22
2018-06-18T19:03:29.901Z,101138.24
2018-06-18T19:05:59.863Z,101141.52
2018-06-18T19:08:31.726Z,101144.88
2018-06-18T19:11:03.395Z,101146.36
2018-06-18T19:13:36.066Z,101149.20
2018-06-18T19:16:05.861Z,101148.09
2018-06-18T19:18:36.680Z,101153.34
2018-06-18T19:21:10.721Z,101152.16
2018-06-18T19:23:39.970Z,101159.08
2018-06-18T19:26:09.316Z,101160.97
2018-06-18T19:28:38.926Z,101165.50
2018-06-18T19:31:12.029Z,101170.09
2018-06-18T19:33:57.556Z,101172.13
2018-06-18T19:36:26.975Z,101178.67
2018-06-18T19:38:56.291Z,101177.26
2018-06-18T19:41:25.532Z,101180.13
2018-06-18T19:43:54.904Z,101181.77
2018-06-18T19:46:33.456Z,101179.78
2018-06-18T19:49:10.592Z,101186.37
2018-06-18T19:51:40.253Z,101188.83
2018-06-18T19:54:14.555Z,101198.03
2018-06-18T19:56:43.890Z,101189.44
2018-06-18T19:59:13.150Z,101196.05
2018-06-18T20:01:42.481Z,101195.20
2018-06-18T20:04:11.898Z,101191.95
2018-06-18T20:06:41.942Z,101194.79
2018-06-18T20:09:12.524Z,101191.06
2018-06-18T20:11:42.535Z,101197.94
2018-06-18T20:14:11.913Z,101195.36
2018-06-18T20:16:41.149Z,101201.58
2018-06-18T20:19:10.393Z,101198.18
2018-06-18T20:21:39.670Z,101200.56
2018-06-18T20:24:08.838Z,101206.25
2018-06-18T20:26:38.086Z,101203.80
2018-06-18T20:29:07.507Z,101201.75
2018-06-18T20:31:36.749Z,101201.36
2018-06-18T20:34:06.729Z,101203.70
2018-06-18T20:36:36.938Z,101207.34
2018-06-18T20:39:10.261Z,101206.27
2018-06-18T20:41:39.642Z,101205.25
2018-06-18T20:44:12.741Z,101216.84
2018-06-18T20:46:41.972Z,101216.16
2018-06-18T20:49:13.570Z,101218.91
2018-06-18T20:51:42.989Z,101222.84
2018-06-18T20:54:12.778Z,101215.96
2018-06-18T20:56:42.081Z,101215.02
2018-06-18T20:59:13.295Z,101218.42
2018-06-18T21:01:42.439Z,101215.09
2018-06-18T21:04:11.578Z,101219.83
2018-06-18T21:06:40.871Z,101218.82
2018-06-18T21:09:11.674Z,101211.14
2018-06-18T21:11:41.075Z,101216.14
2018-06-18T21:14:11.478Z,101213.27
2018-06-18T21:16:44.160Z,101209.03
2018-06-18T21:19:13.392Z,101208.39
2018-06-18T21:21:42.614Z,101209.31
2018-06-18T21:24:11.754Z,101209.20
2018-06-18T21:26:40.911Z,101204.64
2018-06-18T21:29:10.457Z,101207.86
2018-06-18T21:31:39.593Z,101208.86
2018-06-18T21:34:08.752Z,101204.84
2018-06-18T21:36:37.960Z,101214.69
2018-06-18T21:39:09.492Z,101209.58
2018-06-18T21:41:38.642Z,101218.09
2018-06-18T21:44:13.719Z,101217.48
2018-06-18T21:46:43.028Z,101213.92
2018-06-18T21:49:12.202Z,101210.67
2018-06-18T21:51:41.341Z,101214.82
2018-06-18T21:54:10.512Z,101214.27
2018-06-18T21:56:39.787Z,101210.17
2018-06-18T21:59:08.962Z,101204.00
2018-06-18T22:01:41.902Z,101208.58
2018-06-18T22:04:11.108Z,101208.34
2018-06-18T22:06:40.335Z,101200.11
2018-06-18T22:09:14.489Z,101196.32
2018-06-18T22:11:46.539Z,101195.05
2018-06-18T22:14:15.684Z,101184.99
2018-06-18T22:16:44.918Z,101182.14
2018-06-18T22:19:14.040Z,101186.49
2018-06-18T22:21:43.272Z,101187.62
2018-06-18T22:24:12.432Z,101186.05
2018-06-18T22:26:41.609Z,101185.35
2018-06-18T22:29:11.284Z,101191.23
2018-06-18T22:31:40.486Z,101190.63
2018-06-18T22:34:09.779Z,101180.94
2018-06-18T22:36:38.931Z,101183.73
2018-06-18T22:39:10.933Z,101176.25
2018-06-18T22:41:40.124Z,101186.63
2018-06-18T22:44:10.454Z,101180.45
2018-06-18T22:46:39.657Z,101182.59
2018-06-18T22:49:08.870Z,101185.28
2018-06-18T22:51:38.055Z,101180.91
2018-06-18T22:54:07.602Z,101179.39
2018-06-18T22:56:36.967Z,101180.32
2018-06-18T22:59:06.318Z,101177.56
2018-06-18T23:01:35.482Z,101178.66
2018-06-18T23:04:04.764Z,101178.23
2018-06-18T23:06:33.883Z,101180.34
2018-06-18T23:09:09.006Z,101180.45
2018-06-18T23:11:38.191Z,101176.90
2018-06-18T23:14:12.407Z,101177.64
2018-06-18T23:16:41.709Z,101181.32
2018-06-18T23:19:10.830Z,101187.36
2018-06-18T23:21:40.032Z,101191.11
2018-06-18T23:24:09.215Z,101196.30
2018-06-18T23:26:38.729Z,101193.97
2018-06-18T23:29:11.597Z,101189.42
2018-06-18T23:31:40.782Z,101190.36
2018-06-18T23:34:09.919Z,101192.28
2018-06-18T23:36:39.144Z,101194.90
2018-06-18T23:39:10.158Z,101196.39
2018-06-18T23:41:44.131Z,101192.78
2018-06-18T23:44:13.257Z,101192.89
2018-06-18T23:46:42.388Z,101199.25
2018-06-18T23:49:11.536Z,101194.52
2018-06-18T23:51:40.682Z,101198.19
2018-06-18T23:54:09.809Z,101198.59
2018-06-18T23:56:39.037Z,101192.51
2018-06-18T23:59:10.003Z,101197.59
